Flight Track Log - Related Links

Times and Time Zones

All times are in EDT time to prevent confusion due to time zone crossing. See the N143DE flight status page for this flight to view local times or setup timezone preferences in your user account.


Time Position Orientation Groundspeed Altitude Reporting Facility
EDT Latitude Longitude Course Direction KTS MPH feet Rate Location/Type
Fri 01:44:33 AM 33.6431 -84.5153 260° West 213 245 4,200  Level Atlanta Center
Fri 01:45:33 AM 33.5889 -84.5100 175° South 140 161 5,800 1,450 Climbing Atlanta Center
Fri 01:46:33 AM 33.5325 -84.5022 173° South 199 229 7,100 1,350 Climbing Atlanta Center
Fri 01:47:33 AM 33.4761 -84.4944 173° South 199 229 8,500 1,400 Climbing Atlanta Center
Fri 01:48:33 AM 33.4197 -84.4892 176° South 204 235 9,900 1,350 Climbing Atlanta Center
Fri 01:49:33 AM 33.3614 -84.4889 180° South 204 235 11,200 1,400 Climbing Atlanta Center
Fri 01:50:33 AM 33.3008 -84.4911 182° South 210 242 12,700 1,500 Climbing Atlanta Center
Fri 01:51:33 AM 33.2486 -84.4958 184° South 205 236 14,200 1,350 Climbing Atlanta Center
Fri 01:52:33 AM 33.1986 -84.5006 185° South 194 223 15,400 1,150 Climbing Atlanta Center
Fri 01:53:33 AM 33.1464 -84.5053 184° South 194 223 16,500 1,150 Climbing Atlanta Center
Fri 01:54:33 AM 33.0961 -84.5150 189° South 194 223 17,700 1,000 Climbing Atlanta Center
Fri 01:55:33 AM 33.0439 -84.5244 189° South 194 223 18,500 650 Climbing Atlanta Center
Fri 01:56:33 AM 32.9875 -84.5342 188° South 208 239 19,000 300 Climbing Atlanta Center
Fri 01:57:33 AM 32.9208 -84.5461 189° South 231 266 19,100 50 Climbing Atlanta Center
Fri 01:58:33 AM 32.8497 -84.5433 178° South 251 289 19,100  Level Atlanta Center
Fri 01:59:33 AM 32.7725 -84.5378 177° South 270 311 19,100 -50 Level Atlanta Center
Fri 02:00:33 AM 32.6975 -84.5300 175° South 270 311 19,000 -50 Descending Atlanta Center
Fri 02:01:33 AM 32.6264 -84.5197 173° South 270 311 19,000 50 Level Atlanta Center
Fri 02:02:33 AM 32.5492 -84.5169 178° South 270 311 19,100  Climbing Atlanta Center
Fri 02:03:33 AM 32.4761 -84.5117 177° South 275 316 19,000 -50 Descending Atlanta Center
Fri 02:04:33 AM 32.4033 -84.5064 176° South 275 316 19,000 50 Level Atlanta Center
Fri 02:05:33 AM 32.3261 -84.5008 177° South 270 311 19,100  Climbing Atlanta Center
Fri 02:06:33 AM 32.2508 -84.4956 177° South 270 311 19,000 -30 Descending Atlanta Center
Fri 02:08:51 AM 32.0836 -84.4742 174° South 272 313 19,000  Level Jacksonville Center
Fri 02:09:51 AM 32.0106 -84.4728 179° South 267 307 19,000  Level Jacksonville Center
Fri 02:10:51 AM 31.9375 -84.4692 178° South 267 307 19,000  Level Jacksonville Center
Fri 02:11:51 AM 31.8644 -84.4606 174° South 267 307 19,000  Level Jacksonville Center
Fri 02:12:51 AM 31.7936 -84.4544 176° South 267 307 19,000 -533 Level Jacksonville Center
Fri 02:14:00 AM 31.7209 -84.4449 174° South  Level FlightAware Approximate
Fri 02:14:51 AM 31.6414 -84.4444 174° South 274 315 17,400  Level Jacksonville Center
Fri 02:15:51 AM 31.5664 -84.4264 168° South 274 315 16,300 -1,100 Descending Jacksonville Center
Fri 02:16:51 AM 31.4936 -84.4031 165° South 274 315 15,200 -1,100 Descending Jacksonville Center
Fri 02:17:51 AM 31.4189 -84.3753 162° South 279 321 14,100 -1,050 Descending Jacksonville Center
Fri 02:18:51 AM 31.3481 -84.3522 186° South 279 321 13,100 -950 Descending Jacksonville Center
Fri 02:19:00 AM 31.3461 -84.3835 186° South  Level FlightAware Approximate
Fri 02:19:51 AM 31.2814 -84.3269 162° South 272 313 12,200  Level Jacksonville Center
Fri 02:20:51 AM 31.2150 -84.3039 163° South 259 298 11,200 -1,050 Descending Jacksonville Center
Fri 02:21:51 AM 31.1464 -84.2836 166° South 259 298 10,100 -1,150 Descending Jacksonville Center
Fri 02:22:51 AM 31.0797 -84.2606 164° South 259 298 8,900 -1,150 Descending Jacksonville Center
Fri 02:23:51 AM 31.0089 -84.2403 166° South 259 298 7,800 -950 Descending Jacksonville Center
Fri 02:24:51 AM 30.9422 -84.2200 165° South 259 298 7,000 -950 Descending Jacksonville Center
Fri 02:25:51 AM 30.8736 -84.2069 171° South 259 298 5,900 -950 Descending Jacksonville Center
Fri 02:26:51 AM 30.8067 -84.2036 178° South 254 292 5,100 -750 Descending Jacksonville Center
Fri 02:27:51 AM 30.7442 -84.1931 172° South 244 281 4,400 -700 Descending Jacksonville Center
Fri 02:28:51 AM 30.6839 -84.1872 175° South 234 269 3,700 -700 Descending Jacksonville Center
Fri 02:29:51 AM 30.6253 -84.1842 177° South 224 258 3,000 -350 Descending Jacksonville Center
Fri 02:30:51 AM 30.5689 -84.1931 188° South 219 252 3,000  Level Jacksonville Center
Fri 02:31:51 AM 30.5122 -84.2092 194° South 206 237 3,000  Level Jacksonville Center
Fri 02:32:51 AM 30.4600 -84.2206 191° South 200 230 3,000 -200 Level Jacksonville Center
Fri 02:33:51 AM 30.4119 -84.2342 194° South 195 224 2,600 -400 Descending Jacksonville Center

Login

Don't have an account? Register now (free) for customized features, flight alerts, and more!